Time;durP1;ratioP1;P1;durP2;ratioP2;P2;SDS_P1;SDS_P2;PMS_P1;PMS_P2;Temp;Humidity;BMP_temperature;BMP_pressure;BME280_temperature;BME280_humidity;BME280_pressure;Samples;Min_cycle;Max_cycle;Signal;HPM_P1;HPM_P2
2022/11/29 00:02:05;;;;;;;39.38;29.95;;;6.60;99.90;;;;;;5052162;28;20232;-80
2022/11/29 00:04:35;;;;;;;39.17;28.80;;;6.70;99.90;;;;;;5049134;28;20243;-83
2022/11/29 00:07:03;;;;;;;45.38;33.25;;;6.70;99.90;;;;;;5050133;28;20247;-81
2022/11/29 00:09:30;;;;;;;34.80;28.50;;;6.80;99.90;;;;;;5051480;28;20230;-80
2022/11/29 00:14:45;;;;;;;37.33;26.63;;;6.90;99.90;;;;;;5071142;28;20269;-81
2022/11/29 00:17:12;;;;;;;42.28;33.15;;;6.80;99.90;;;;;;5072022;28;20291;-81
2022/11/29 00:19:41;;;;;;;40.97;29.58;;;6.80;99.90;;;;;;5074373;28;20880;-83
2022/11/29 00:22:09;;;;;;;42.30;30.58;;;6.80;99.90;;;;;;5059085;28;20337;-83
2022/11/29 00:24:36;;;;;;;57.22;40.40;;;6.80;99.90;;;;;;5055902;28;20220;-81
2022/11/29 00:27:25;;;;;;;45.70;33.03;;;6.80;99.90;;;;;;5055810;28;20332;-83
2022/11/29 00:29:56;;;;;;;35.15;26.98;;;6.80;99.90;;;;;;5053143;28;20234;-83
2022/11/29 00:32:24;;;;;;;59.22;42.92;;;6.80;99.90;;;;;;5053331;28;20220;-84
2022/11/29 00:34:50;;;;;;;43.42;31.42;;;6.80;99.90;;;;;;5048477;28;20220;-82
2022/11/29 00:37:17;;;;;;;41.70;29.02;;;6.80;99.90;;;;;;5061981;28;20228;-80
2022/11/29 00:39:47;;;;;;;44.50;34.38;;;6.90;99.90;;;;;;5052554;28;20573;-82
2022/11/29 00:42:14;;;;;;;37.22;29.85;;;6.80;99.90;;;;;;5062582;28;20310;-82
2022/11/29 00:44:41;;;;;;;55.50;39.55;;;6.70;99.90;;;;;;5053130;28;20227;-80
2022/11/29 00:47:12;;;;;;;36.45;27.90;;;6.70;99.90;;;;;;5053801;28;20225;-84
2022/11/29 00:55:10;;;;;;;43.22;33.03;;;6.70;99.90;;;;;;5049689;28;20221;-81
2022/11/29 00:57:39;;;;;;;40.03;30.27;;;6.70;99.90;;;;;;5066227;28;20557;-81
2022/11/29 01:00:08;;;;;;;38.55;26.30;;;6.70;99.90;;;;;;5080982;28;20235;-83
2022/11/29 01:02:38;;;;;;;38.20;26.30;;;6.70;99.90;;;;;;5089646;28;20230;-83
2022/11/29 01:05:06;;;;;;;42.88;30.15;;;6.70;99.90;;;;;;5083316;28;20224;-82
2022/11/29 01:07:34;;;;;;;41.47;31.05;;;6.60;99.90;;;;;;5081826;28;20227;-83
2022/11/29 01:10:04;;;;;;;33.70;26.15;;;6.60;99.90;;;;;;5079100;28;20267;-83
2022/11/29 01:12:31;;;;;;;36.03;27.77;;;6.60;99.90;;;;;;5079417;28;20297;-83
2022/11/29 01:14:59;;;;;;;51.97;34.30;;;6.60;99.90;;;;;;5072218;28;20224;-81
2022/11/29 01:17:26;;;;;;;42.35;30.70;;;6.60;99.90;;;;;;5073832;28;20307;-83
2022/11/29 01:19:56;;;;;;;35.65;28.67;;;6.50;99.90;;;;;;5086059;22;20245;-83
2022/11/29 01:22:26;;;;;;;38.08;28.23;;;6.50;99.90;;;;;;5059710;28;20299;-83
2022/11/29 01:24:57;;;;;;;41.22;31.35;;;6.50;99.90;;;;;;5060100;28;20224;-80
2022/11/29 01:27:24;;;;;;;41.63;31.60;;;6.40;99.90;;;;;;5059861;28;20718;-83
2022/11/29 01:29:51;;;;;;;40.85;26.02;;;6.40;99.90;;;;;;5069991;28;20236;-83
2022/11/29 01:32:19;;;;;;;52.90;37.72;;;6.40;99.90;;;;;;5062781;28;20225;-83
2022/11/29 01:34:48;;;;;;;39.85;29.33;;;6.40;99.90;;;;;;5051581;28;20238;-82
2022/11/29 01:37:19;;;;;;;43.20;31.77;;;6.30;99.90;;;;;;5048729;28;20217;-82
2022/11/29 01:39:46;;;;;;;39.30;26.23;;;6.40;99.90;;;;;;5062724;28;20236;-82
2022/11/29 01:42:15;;;;;;;37.97;27.15;;;6.40;99.90;;;;;;5066534;28;20225;-82
2022/11/29 01:45:08;;;;;;;40.38;30.17;;;6.40;99.90;;;;;;5067860;28;20251;-82
2022/11/29 01:47:43;;;;;;;53.15;38.20;;;6.40;99.90;;;;;;5084695;28;20292;-81
2022/11/29 01:50:12;;;;;;;47.15;34.92;;;6.30;99.90;;;;;;5062371;28;20228;-81
2022/11/29 01:52:48;;;;;;;54.40;38.28;;;6.40;99.90;;;;;;5055054;28;20251;-82
2022/11/29 01:55:15;;;;;;;39.25;28.52;;;6.40;99.90;;;;;;5065701;28;20243;-83
2022/11/29 01:57:45;;;;;;;47.42;34.33;;;6.50;99.90;;;;;;5056340;28;20224;-82
2022/11/29 02:00:16;;;;;;;46.17;33.15;;;6.40;99.90;;;;;;5075430;28;20233;-80
2022/11/29 02:02:47;;;;;;;50.25;36.65;;;6.50;99.90;;;;;;5069071;28;20229;-82
2022/11/29 02:05:16;;;;;;;57.33;38.92;;;6.50;99.90;;;;;;5068251;28;20221;-80
2022/11/29 02:07:48;;;;;;;51.10;33.65;;;6.60;99.90;;;;;;5066989;28;20220;-82
2022/11/29 02:10:16;;;;;;;42.88;32.03;;;6.60;99.90;;;;;;5078996;28;20231;-79
2022/11/29 02:12:58;;;;;;;40.20;30.00;;;6.60;99.90;;;;;;5064899;28;20299;-80
2022/11/29 02:15:39;;;;;;;47.17;32.05;;;6.70;99.90;;;;;;5081137;28;20299;-80
2022/11/29 02:18:10;;;;;;;50.40;36.33;;;6.60;99.90;;;;;;5072842;28;20224;-81
2022/11/29 02:21:11;;;;;;;57.25;36.25;;;6.70;99.90;;;;;;5079092;28;20228;-81
2022/11/29 02:24:19;;;;;;;38.65;29.15;;;6.70;99.90;;;;;;5058673;28;20988;-80
2022/11/29 02:27:27;;;;;;;43.42;32.88;;;6.70;99.90;;;;;;5059289;28;20312;-79
2022/11/29 02:30:14;;;;;;;38.70;28.08;;;6.70;99.90;;;;;;5063570;28;20232;-79
2022/11/29 02:33:28;;;;;;;38.95;29.77;;;6.80;99.90;;;;;;5067705;28;20292;-82
2022/11/29 02:36:27;;;;;;;45.08;29.38;;;6.80;99.90;;;;;;5066092;28;20216;-79
2022/11/29 02:39:27;;;;;;;51.35;32.83;;;6.90;99.90;;;;;;5046963;28;20376;-81
2022/11/29 02:42:15;;;;;;;37.65;28.30;;;6.90;99.90;;;;;;5068906;28;20224;-81
2022/11/29 02:45:06;;;;;;;40.47;29.40;;;6.90;99.90;;;;;;5071282;28;20254;-81
2022/11/29 02:47:50;;;;;;;38.35;29.95;;;6.90;99.90;;;;;;5070861;28;20284;-80
2022/11/29 02:50:29;;;;;;;39.75;32.85;;;6.90;99.90;;;;;;5069650;28;20255;-79
2022/11/29 02:53:04;;;;;;;39.20;27.88;;;6.90;99.90;;;;;;5067452;28;20236;-79
2022/11/29 02:55:41;;;;;;;38.67;29.25;;;6.80;99.90;;;;;;5067985;28;20238;-79
2022/11/29 02:58:17;;;;;;;42.00;32.10;;;6.80;99.90;;;;;;5065194;28;20224;-79
2022/11/29 03:00:51;;;;;;;38.58;29.13;;;6.90;99.90;;;;;;5061444;28;20231;-82
2022/11/29 03:03:25;;;;;;;33.15;26.95;;;6.90;99.90;;;;;;5060546;28;20252;-82
2022/11/29 03:06:04;;;;;;;43.20;29.40;;;6.90;99.90;;;;;;5058912;28;20551;-81
2022/11/29 03:08:37;;;;;;;40.92;30.38;;;6.90;99.90;;;;;;5035781;28;20292;-81
2022/11/29 03:11:18;;;;;;;44.97;31.30;;;7.00;99.90;;;;;;5056528;28;20224;-81
2022/11/29 03:13:55;;;;;;;40.45;28.77;;;7.00;99.90;;;;;;5057022;28;20314;-80
2022/11/29 03:16:30;;;;;;;42.00;30.10;;;7.00;99.90;;;;;;5057654;28;20216;-80
2022/11/29 03:19:17;;;;;;;41.05;30.67;;;7.00;99.90;;;;;;5057125;28;20243;-82
2022/11/29 03:21:55;;;;;;;37.88;29.10;;;7.00;99.90;;;;;;5075956;28;20551;-82
2022/11/29 03:24:37;;;;;;;38.15;27.50;;;7.00;99.90;;;;;;5077368;28;20215;-82
2022/11/29 03:27:15;;;;;;;39.35;28.58;;;7.00;99.90;;;;;;5078651;28;20223;-80
2022/11/29 03:29:53;;;;;;;45.47;33.78;;;7.00;99.90;;;;;;5069425;28;20226;-80
2022/11/29 03:32:27;;;;;;;39.60;29.02;;;7.00;99.90;;;;;;5076705;28;20241;-81
2022/11/29 03:35:02;;;;;;;37.95;27.83;;;7.00;99.90;;;;;;5077811;28;20250;-81
2022/11/29 03:37:42;;;;;;;44.55;30.90;;;7.10;99.90;;;;;;5077177;28;20297;-82
2022/11/29 03:40:11;;;;;;;43.53;32.30;;;7.00;99.90;;;;;;5052589;28;20670;-80
2022/11/29 03:42:54;;;;;;;46.50;32.92;;;7.00;99.90;;;;;;5052844;28;20670;-80
2022/11/29 03:45:25;;;;;;;39.22;28.42;;;7.00;99.90;;;;;;5053866;28;20679;-80
2022/11/29 03:48:00;;;;;;;37.42;28.05;;;7.10;99.90;;;;;;5053424;28;20305;-82
2022/11/29 03:50:34;;;;;;;36.00;28.77;;;7.00;99.90;;;;;;5053778;28;20346;-82
2022/11/29 03:53:07;;;;;;;40.05;28.02;;;7.00;99.90;;;;;;5052755;28;20629;-82
2022/11/29 03:55:49;;;;;;;43.22;31.90;;;6.90;99.90;;;;;;5054430;28;20228;-80
2022/11/29 03:58:33;;;;;;;42.28;29.58;;;7.00;99.90;;;;;;5053212;28;20221;-79
2022/11/29 04:01:48;;;;;;;41.67;30.25;;;6.90;99.90;;;;;;5058484;28;20665;-83
2022/11/29 04:08:00;;;;;;;40.35;28.77;;;6.90;99.90;;;;;;5061795;28;20270;-81
2022/11/29 04:10:55;;;;;;;37.15;27.52;;;6.80;99.90;;;;;;5052638;28;20315;-81
2022/11/29 04:13:46;;;;;;;41.88;27.77;;;6.80;99.90;;;;;;5054192;28;20560;-82
2022/11/29 04:16:41;;;;;;;35.58;27.90;;;6.80;99.90;;;;;;5052443;28;20223;-79
2022/11/29 04:19:37;;;;;;;35.13;28.52;;;6.70;99.90;;;;;;5043570;28;20647;-83
2022/11/29 04:22:26;;;;;;;35.58;26.48;;;6.80;99.90;;;;;;5053220;28;20247;-80
2022/11/29 04:25:26;;;;;;;46.30;32.00;;;6.70;99.90;;;;;;5041177;28;20718;-81
2022/11/29 04:28:21;;;;;;;38.03;28.50;;;6.70;99.90;;;;;;5050220;28;20224;-81
2022/11/29 04:30:55;;;;;;;38.33;27.55;;;6.70;99.90;;;;;;5046266;28;20750;-81
2022/11/29 04:34:12;;;;;;;37.50;27.10;;;6.70;99.90;;;;;;5066038;28;20267;-83
2022/11/29 04:37:18;;;;;;;41.97;29.35;;;6.70;99.90;;;;;;5056283;28;20251;-81
2022/11/29 04:40:12;;;;;;;38.50;28.45;;;6.70;99.90;;;;;;5012888;28;20276;-81
2022/11/29 04:43:14;;;;;;;37.63;27.52;;;6.80;99.90;;;;;;5003971;28;20226;-83
2022/11/29 04:46:22;;;;;;;38.90;29.52;;;6.80;99.90;;;;;;5014456;28;20221;-83
2022/11/29 04:49:15;;;;;;;37.97;27.50;;;6.70;99.90;;;;;;5013635;28;20249;-80
2022/11/29 04:52:05;;;;;;;40.30;29.75;;;6.70;99.90;;;;;;5044285;28;20228;-81
2022/11/29 04:54:43;;;;;;;40.78;29.08;;;6.70;99.90;;;;;;5063276;28;20221;-83
2022/11/29 04:57:20;;;;;;;42.00;30.35;;;6.70;99.90;;;;;;5055641;28;20638;-81
2022/11/29 04:59:54;;;;;;;39.88;27.90;;;6.70;99.90;;;;;;5055795;28;20636;-81
2022/11/29 05:02:32;;;;;;;33.60;26.90;;;6.70;99.90;;;;;;5063023;28;20216;-83
2022/11/29 05:05:14;;;;;;;41.92;28.63;;;6.80;99.90;;;;;;5045484;28;20248;-81
2022/11/29 05:07:53;;;;;;;37.95;29.85;;;6.70;99.90;;;;;;5051645;28;20303;-82
2022/11/29 05:10:38;;;;;;;35.33;28.55;;;6.80;99.90;;;;;;5074348;28;20219;-82
2022/11/29 05:13:13;;;;;;;39.25;27.73;;;6.90;99.90;;;;;;5074919;28;20862;-83
2022/11/29 05:16:02;;;;;;;33.83;26.05;;;6.90;99.90;;;;;;5075694;28;20576;-80
2022/11/29 05:18:49;;;;;;;39.33;28.08;;;6.80;99.90;;;;;;5074968;28;20224;-83
2022/11/29 05:21:28;;;;;;;36.00;28.35;;;6.80;99.90;;;;;;5075211;28;20220;-83
2022/11/29 05:24:33;;;;;;;37.35;27.67;;;6.80;99.90;;;;;;5075010;28;20228;-80
2022/11/29 05:27:09;;;;;;;40.60;31.23;;;6.80;99.90;;;;;;5030813;28;20236;-81
2022/11/29 05:29:41;;;;;;;41.55;29.13;;;6.80;99.90;;;;;;5033198;28;20337;-80
2022/11/29 05:32:27;;;;;;;37.67;28.40;;;6.70;99.90;;;;;;5055905;28;20642;-80
2022/11/29 05:35:31;;;;;;;34.78;27.70;;;6.80;99.90;;;;;;5074580;28;20234;-81
2022/11/29 05:38:07;;;;;;;37.00;28.63;;;6.80;99.90;;;;;;5074635;28;20224;-80
2022/11/29 05:40:44;;;;;;;38.85;27.60;;;6.80;99.90;;;;;;5066592;28;20693;-81
2022/11/29 05:43:25;;;;;;;38.88;28.02;;;6.80;99.90;;;;;;5060647;28;20236;-80
2022/11/29 05:45:59;;;;;;;43.13;28.48;;;6.80;99.90;;;;;;5074398;28;20223;-80
2022/11/29 05:48:43;;;;;;;36.85;28.48;;;6.80;99.90;;;;;;5075740;28;20240;-80
2022/11/29 05:51:20;;;;;;;35.92;28.13;;;6.70;99.90;;;;;;5074798;28;20228;-80
2022/11/29 05:54:02;;;;;;;42.53;29.85;;;6.70;99.90;;;;;;5074630;28;20301;-80
2022/11/29 05:56:40;;;;;;;49.15;30.95;;;6.70;99.90;;;;;;5074231;28;20224;-81
2022/11/29 05:59:11;;;;;;;36.63;28.05;;;6.70;99.90;;;;;;5073968;28;20570;-81
2022/11/29 06:02:04;;;;;;;36.22;27.83;;;6.70;99.90;;;;;;5057295;28;20711;-80
2022/11/29 06:04:48;;;;;;;36.72;28.92;;;6.70;99.90;;;;;;5071707;28;20228;-80
2022/11/29 06:07:22;;;;;;;41.10;29.58;;;6.70;99.90;;;;;;5072901;28;20243;-80
2022/11/29 06:09:56;;;;;;;36.00;27.63;;;6.70;99.90;;;;;;5074837;28;20310;-81
2022/11/29 06:12:25;;;;;;;36.63;28.15;;;6.80;99.90;;;;;;5074997;28;21147;-80
2022/11/29 06:15:22;;;;;;;38.35;28.33;;;6.80;99.90;;;;;;5074946;28;20250;-80
2022/11/29 06:18:22;;;;;;;38.00;26.80;;;6.80;99.90;;;;;;5074094;28;20226;-80
2022/11/29 06:21:01;;;;;;;39.83;28.65;;;6.80;99.90;;;;;;5073277;28;20251;-81
2022/11/29 06:23:48;;;;;;;36.95;28.85;;;6.80;99.90;;;;;;5073922;28;20228;-80
2022/11/29 06:26:32;;;;;;;38.13;27.10;;;6.80;99.90;;;;;;5063008;28;20231;-80
2022/11/29 06:29:05;;;;;;;34.15;27.08;;;6.80;99.90;;;;;;5074373;28;20556;-83
2022/11/29 06:31:43;;;;;;;43.05;30.50;;;6.80;99.90;;;;;;5074834;28;20220;-82
2022/11/29 06:34:20;;;;;;;39.78;28.35;;;6.80;99.90;;;;;;5072979;28;20315;-82
2022/11/29 06:36:51;;;;;;;42.72;29.30;;;6.80;99.90;;;;;;5074798;28;20541;-82
2022/11/29 06:39:20;;;;;;;34.50;25.83;;;6.90;99.90;;;;;;5063455;28;20720;-83
2022/11/29 06:41:47;;;;;;;42.65;30.02;;;6.90;99.90;;;;;;5056815;28;20607;-84
2022/11/29 06:44:15;;;;;;;40.97;29.40;;;6.90;99.90;;;;;;5073506;28;20234;-83
2022/11/29 06:46:46;;;;;;;39.13;28.58;;;6.80;99.90;;;;;;5061649;28;20307;-83
2022/11/29 06:49:21;;;;;;;38.67;28.55;;;6.80;99.90;;;;;;5064571;28;20677;-81
2022/11/29 06:52:05;;;;;;;45.58;29.92;;;6.80;99.90;;;;;;5062384;28;20277;-81
2022/11/29 06:54:41;;;;;;;36.03;27.85;;;6.80;99.90;;;;;;5062438;28;20310;-81
2022/11/29 06:57:20;;;;;;;35.75;27.60;;;6.80;99.90;;;;;;5074324;28;20243;-81
2022/11/29 07:00:00;;;;;;;36.33;27.25;;;6.90;99.90;;;;;;5073447;28;20355;-82
2022/11/29 07:02:55;;;;;;;38.72;26.92;;;6.90;99.90;;;;;;5073368;28;20226;-81
2022/11/29 07:05:27;;;;;;;41.55;27.38;;;6.90;99.90;;;;;;5073814;28;20220;-84
2022/11/29 07:08:01;;;;;;;40.92;28.65;;;6.80;99.90;;;;;;5073054;28;20312;-83
2022/11/29 07:10:32;;;;;;;36.75;27.80;;;6.80;99.90;;;;;;5062015;28;20542;-81
2022/11/29 07:13:07;;;;;;;47.28;30.77;;;6.80;99.90;;;;;;5061624;28;20297;-83
2022/11/29 07:15:49;;;;;;;41.65;29.50;;;6.90;99.90;;;;;;5072947;28;20220;-84
2022/11/29 07:18:32;;;;;;;37.33;28.00;;;6.90;99.90;;;;;;5069456;28;20236;-81
2022/11/29 07:21:21;;;;;;;37.35;28.42;;;6.80;99.90;;;;;;5047300;28;20233;-81
2022/11/29 07:24:05;;;;;;;40.92;29.45;;;6.90;99.90;;;;;;5032773;28;20674;-81
2022/11/29 07:26:42;;;;;;;36.78;28.05;;;6.80;99.90;;;;;;5032696;28;20705;-81
2022/11/29 07:29:24;;;;;;;39.45;27.63;;;6.90;99.90;;;;;;5033654;28;20277;-81
2022/11/29 07:32:00;;;;;;;36.20;26.65;;;6.90;99.90;;;;;;5033013;28;20637;-81
2022/11/29 07:34:38;;;;;;;39.67;26.85;;;6.90;99.90;;;;;;5033297;28;20291;-83
2022/11/29 07:37:18;;;;;;;37.67;27.95;;;6.70;99.90;;;;;;5026651;28;20225;-83
2022/11/29 07:39:56;;;;;;;37.90;27.30;;;6.60;99.90;;;;;;5051325;28;20286;-83
2022/11/29 07:42:36;;;;;;;38.95;27.92;;;6.50;99.90;;;;;;5034814;28;20765;-83
2022/11/29 07:45:13;;;;;;;37.72;28.75;;;6.50;99.90;;;;;;5036793;28;20240;-83
2022/11/29 07:47:45;;;;;;;31.25;25.05;;;6.50;99.90;;;;;;5040392;28;20251;-83
2022/11/29 07:50:12;;;;;;;38.25;28.27;;;6.50;99.90;;;;;;5050320;28;20241;-84
2022/11/29 07:52:49;;;;;;;35.65;26.85;;;6.60;99.90;;;;;;5040189;28;20244;-83
2022/11/29 07:55:23;;;;;;;35.20;26.00;;;6.60;99.90;;;;;;5054468;28;20231;-83
2022/11/29 07:57:53;;;;;;;41.92;26.60;;;6.60;99.90;;;;;;5054875;28;20239;-83
2022/11/29 08:00:38;;;;;;;36.58;28.13;;;6.60;99.90;;;;;;5038183;28;20278;-82
2022/11/29 08:03:06;;;;;;;36.30;27.55;;;6.70;99.90;;;;;;5043178;28;20255;-83
2022/11/29 08:05:33;;;;;;;38.17;28.10;;;6.80;99.90;;;;;;5051993;28;20221;-81
2022/11/29 08:08:02;;;;;;;37.58;28.10;;;6.80;99.90;;;;;;5041763;28;20598;-81
2022/11/29 08:10:31;;;;;;;36.30;26.88;;;6.80;99.90;;;;;;5037626;28;20582;-83
2022/11/29 08:12:59;;;;;;;35.28;25.55;;;6.90;99.90;;;;;;5031174;28;20221;-83
2022/11/29 08:15:28;;;;;;;34.92;26.83;;;6.90;99.90;;;;;;5060710;28;20669;-83
2022/11/29 08:17:58;;;;;;;40.00;27.80;;;7.00;99.90;;;;;;5040921;28;20236;-81
2022/11/29 08:20:27;;;;;;;30.90;24.65;;;6.90;99.90;;;;;;5065852;28;20232;-80
2022/11/29 08:22:57;;;;;;;35.80;25.23;;;7.00;99.90;;;;;;5078438;28;20228;-81
2022/11/29 08:25:33;;;;;;;38.55;27.45;;;7.00;99.90;;;;;;5068582;28;20554;-81
2022/11/29 08:28:06;;;;;;;37.83;26.83;;;7.00;99.90;;;;;;5079567;28;20223;-79
2022/11/29 08:33:52;;;;;;;35.85;27.02;;;7.00;99.90;;;;;;5068183;28;20285;-80
2022/11/29 08:36:22;;;;;;;31.15;25.63;;;7.00;99.90;;;;;;5047627;28;20221;-80
2022/11/29 08:38:50;;;;;;;33.63;26.15;;;7.00;99.90;;;;;;5059668;28;20220;-80
2022/11/29 08:41:22;;;;;;;40.60;26.80;;;7.10;99.90;;;;;;5050947;28;20225;-80
2022/11/29 08:43:53;;;;;;;34.65;25.60;;;7.10;99.90;;;;;;5058366;28;20236;-81
2022/11/29 08:46:20;;;;;;;36.75;27.38;;;7.10;99.90;;;;;;5048809;28;20232;-80
2022/11/29 08:48:49;;;;;;;40.90;27.85;;;7.10;99.90;;;;;;5065689;28;20746;-81
2022/11/29 08:51:19;;;;;;;33.38;24.83;;;7.10;99.90;;;;;;5065617;28;20228;-81
2022/11/29 08:53:50;;;;;;;31.70;25.52;;;7.10;99.90;;;;;;5052179;28;20236;-81
2022/11/29 08:56:31;;;;;;;41.03;25.58;;;7.00;99.90;;;;;;5053083;28;20307;-81
2022/11/29 08:59:00;;;;;;;36.55;27.08;;;7.00;99.90;;;;;;5084676;28;20235;-80
2022/11/29 09:01:27;;;;;;;40.28;29.20;;;7.00;99.90;;;;;;5072335;28;20236;-79
2022/11/29 09:04:02;;;;;;;36.00;27.70;;;7.10;99.90;;;;;;5065944;28;20690;-80
2022/11/29 09:06:31;;;;;;;38.40;29.00;;;7.10;99.90;;;;;;5073842;28;20220;-80
2022/11/29 09:08:59;;;;;;;41.90;30.98;;;7.10;99.90;;;;;;5074468;28;20235;-80
2022/11/29 09:11:29;;;;;;;39.10;28.05;;;7.20;99.90;;;;;;5073996;28;20251;-80
2022/11/29 09:14:05;;;;;;;40.92;26.38;;;7.20;99.90;;;;;;5075339;28;20237;-80
2022/11/29 09:16:37;;;;;;;34.65;25.33;;;7.30;99.90;;;;;;5075376;28;20235;-82
2022/11/29 09:19:08;;;;;;;44.17;27.38;;;7.30;99.90;;;;;;5065216;28;20244;-82
2022/11/29 09:21:36;;;;;;;32.83;26.52;;;7.30;99.90;;;;;;5057724;28;20225;-81
2022/11/29 09:24:05;;;;;;;37.90;28.23;;;7.40;99.90;;;;;;5068060;28;20229;-81
2022/11/29 09:26:34;;;;;;;31.98;25.25;;;7.40;99.90;;;;;;5071189;28;20288;-80
2022/11/29 09:29:05;;;;;;;35.67;27.40;;;7.40;99.90;;;;;;5068925;28;20217;-81
2022/11/29 09:31:33;;;;;;;33.75;28.23;;;7.50;99.90;;;;;;5066486;28;20278;-82
2022/11/29 09:34:01;;;;;;;38.67;30.67;;;7.50;99.90;;;;;;5086586;28;20220;-83
2022/11/29 09:36:29;;;;;;;31.73;26.63;;;7.40;99.90;;;;;;5059806;28;20224;-82
2022/11/29 09:39:02;;;;;;;38.60;27.92;;;7.50;99.90;;;;;;5080602;28;20291;-81
2022/11/29 09:42:00;;;;;;;39.55;28.45;;;7.60;99.90;;;;;;5064197;28;20225;-80
2022/11/29 09:44:37;;;;;;;34.13;26.35;;;7.60;99.90;;;;;;5057054;28;20278;-83
2022/11/29 09:47:26;;;;;;;33.33;26.42;;;7.60;99.90;;;;;;5055454;28;20263;-81
2022/11/29 09:50:14;;;;;;;34.78;28.27;;;7.70;99.90;;;;;;5061890;28;20228;-81
2022/11/29 09:52:52;;;;;;;31.63;24.30;;;7.60;99.90;;;;;;5060858;28;20207;-81
2022/11/29 09:55:47;;;;;;;37.72;27.48;;;7.60;99.90;;;;;;5059868;28;20303;-82
2022/11/29 09:58:25;;;;;;;35.30;25.70;;;7.70;99.90;;;;;;5054517;28;20220;-81
2022/11/29 10:01:01;;;;;;;35.90;27.90;;;7.70;99.90;;;;;;5055425;28;20225;-82
2022/11/29 10:03:35;;;;;;;35.30;27.05;;;7.80;99.90;;;;;;5056016;28;20225;-81
2022/11/29 10:06:08;;;;;;;34.95;24.60;;;7.90;99.90;;;;;;5048330;28;20224;-82
2022/11/29 10:11:19;;;;;;;32.45;27.05;;;7.90;99.90;;;;;;5337285;22;20232;-81
2022/11/29 10:13:53;;;;;;;33.70;25.80;;;8.00;99.90;;;;;;5067962;28;20589;-81
2022/11/29 10:16:38;;;;;;;33.55;25.33;;;7.90;99.90;;;;;;5063563;28;20221;-79
2022/11/29 10:19:24;;;;;;;37.90;26.92;;;7.90;99.90;;;;;;5062722;28;20585;-80
2022/11/29 10:21:59;;;;;;;37.53;26.08;;;7.90;99.90;;;;;;5048905;28;20221;-80
2022/11/29 10:24:29;;;;;;;35.97;25.48;;;7.90;99.90;;;;;;5051530;28;20278;-80
2022/11/29 10:26:56;;;;;;;36.03;26.23;;;7.90;99.90;;;;;;5061309;28;20284;-79
2022/11/29 10:29:28;;;;;;;39.75;27.33;;;8.00;99.90;;;;;;5055333;28;20271;-81
2022/11/29 10:31:59;;;;;;;33.95;27.35;;;8.00;99.90;;;;;;5053362;28;20243;-80
2022/11/29 10:34:31;;;;;;;36.05;28.10;;;7.90;99.90;;;;;;5045616;28;20712;-80
2022/11/29 10:37:02;;;;;;;36.95;27.25;;;7.90;99.90;;;;;;5054274;28;20286;-80
2022/11/29 10:39:40;;;;;;;36.53;26.25;;;7.80;99.90;;;;;;5054118;28;20224;-80
2022/11/29 10:44:57;;;;;;;34.97;25.70;;;7.80;99.90;;;;;;5054767;28;20224;-80
2022/11/29 10:47:26;;;;;;;40.15;28.25;;;7.70;99.90;;;;;;5054232;28;20229;-80
2022/11/29 10:49:53;;;;;;;36.85;26.90;;;7.70;99.90;;;;;;5053061;28;20621;-80
2022/11/29 10:52:22;;;;;;;37.63;29.20;;;7.70;99.90;;;;;;5053977;28;20236;-82
2022/11/29 10:54:53;;;;;;;39.17;29.08;;;7.70;99.90;;;;;;5053276;28;20677;-82
2022/11/29 10:57:39;;;;;;;35.83;27.83;;;7.70;99.90;;;;;;5043263;28;20228;-82
2022/11/29 11:00:12;;;;;;;37.42;27.55;;;7.60;99.90;;;;;;5050962;28;20235;-81
2022/11/29 11:02:41;;;;;;;35.47;26.60;;;7.60;99.90;;;;;;5054211;28;20274;-82
2022/11/29 11:05:17;;;;;;;37.03;27.33;;;7.70;99.90;;;;;;5043534;28;20233;-82
2022/11/29 11:08:04;;;;;;;35.50;26.75;;;7.70;99.90;;;;;;5054314;28;20270;-82
2022/11/29 11:10:31;;;;;;;36.15;26.65;;;7.80;99.90;;;;;;5053748;28;20564;-82
2022/11/29 11:13:26;;;;;;;34.53;27.63;;;7.80;99.90;;;;;;5049051;28;20305;-82
2022/11/29 11:16:11;;;;;;;32.55;26.30;;;7.80;99.90;;;;;;5059128;28;20718;-82
2022/11/29 11:18:43;;;;;;;33.78;28.25;;;7.80;99.90;;;;;;5055920;28;20569;-83
2022/11/29 11:21:14;;;;;;;35.58;29.77;;;7.80;99.90;;;;;;5044511;28;20308;-82
2022/11/29 11:23:56;;;;;;;38.38;26.52;;;7.80;99.90;;;;;;5053178;28;20220;-82
2022/11/29 11:26:44;;;;;;;35.10;27.80;;;7.80;99.90;;;;;;5055067;28;20308;-81
2022/11/29 11:29:21;;;;;;;37.05;28.13;;;7.80;99.90;;;;;;5052768;28;20296;-80
2022/11/29 11:31:53;;;;;;;36.88;28.75;;;7.90;99.90;;;;;;5053955;28;20654;-80
2022/11/29 11:34:50;;;;;;;37.58;27.67;;;7.80;99.90;;;;;;5037134;28;20251;-81
2022/11/29 11:37:23;;;;;;;34.58;25.05;;;7.90;99.90;;;;;;5062339;28;20224;-82
2022/11/29 11:39:52;;;;;;;40.95;27.48;;;7.90;99.90;;;;;;5054335;28;20248;-81
2022/11/29 11:42:41;;;;;;;40.25;29.10;;;7.90;99.90;;;;;;5053018;28;20300;-80
2022/11/29 11:45:40;;;;;;;33.55;27.23;;;7.90;99.90;;;;;;5053212;28;20259;-82
2022/11/29 11:48:22;;;;;;;36.92;27.65;;;7.90;99.90;;;;;;5048559;28;20287;-82
2022/11/29 11:51:33;;;;;;;37.78;29.23;;;7.90;99.90;;;;;;5059899;28;20220;-80
2022/11/29 11:54:12;;;;;;;39.20;28.52;;;7.80;99.90;;;;;;5052645;28;20636;-82
2022/11/29 11:56:45;;;;;;;42.47;28.17;;;7.90;99.90;;;;;;5053023;28;20216;-82
2022/11/29 11:59:20;;;;;;;38.35;28.60;;;7.80;99.90;;;;;;5053648;28;20228;-82
2022/11/29 12:01:47;;;;;;;37.60;28.83;;;7.80;99.90;;;;;;5054364;28;20227;-81
2022/11/29 12:04:21;;;;;;;38.80;28.70;;;7.80;99.90;;;;;;5055573;28;20279;-82
2022/11/29 12:07:01;;;;;;;37.97;30.10;;;7.90;99.90;;;;;;5040794;28;20587;-82
2022/11/29 12:09:39;;;;;;;42.30;29.13;;;7.90;99.90;;;;;;5054706;28;20739;-80
2022/11/29 12:12:14;;;;;;;42.03;31.63;;;7.90;99.90;;;;;;5046157;28;20217;-80
2022/11/29 12:14:56;;;;;;;41.53;30.35;;;7.90;99.90;;;;;;5055566;28;20216;-82
2022/11/29 12:17:34;;;;;;;43.00;30.67;;;7.80;99.90;;;;;;5060085;28;20279;-82
2022/11/29 12:20:19;;;;;;;38.97;28.33;;;7.80;99.90;;;;;;5042544;28;20243;-80
2022/11/29 12:23:18;;;;;;;40.40;30.05;;;7.80;99.90;;;;;;5054606;28;20228;-81
2022/11/29 12:25:55;;;;;;;44.63;29.35;;;7.70;99.90;;;;;;5041331;28;20642;-79
2022/11/29 12:28:28;;;;;;;44.70;32.25;;;7.70;99.90;;;;;;5043432;28;20228;-80
2022/11/29 12:31:09;;;;;;;39.90;29.10;;;7.60;99.90;;;;;;5065037;28;20292;-82
2022/11/29 12:33:47;;;;;;;38.38;30.83;;;7.60;99.90;;;;;;5047430;28;20243;-82
2022/11/29 12:36:30;;;;;;;46.50;31.50;;;7.60;99.90;;;;;;5054812;28;20232;-81
2022/11/29 12:39:16;;;;;;;39.85;29.60;;;7.60;99.90;;;;;;5047112;28;20225;-82
2022/11/29 12:41:49;;;;;;;42.30;31.15;;;7.60;99.90;;;;;;5055729;28;20696;-82
2022/11/29 12:44:40;;;;;;;42.40;29.42;;;7.60;99.90;;;;;;5049947;28;20216;-81
2022/11/29 12:47:15;;;;;;;39.65;29.95;;;7.70;99.90;;;;;;5053553;28;20247;-79
2022/11/29 12:49:53;;;;;;;38.78;29.45;;;7.80;99.90;;;;;;5051902;28;20223;-79
2022/11/29 12:52:37;;;;;;;40.85;31.10;;;7.90;99.90;;;;;;5066381;28;20504;-81
2022/11/29 12:55:17;;;;;;;42.53;31.77;;;7.80;99.90;;;;;;5049896;28;20526;-79
2022/11/29 12:57:52;;;;;;;42.83;31.42;;;7.80;99.90;;;;;;5054873;28;20224;-81
2022/11/29 13:00:42;;;;;;;41.17;31.30;;;7.80;99.90;;;;;;5058835;28;20259;-79
2022/11/29 13:03:31;;;;;;;44.80;30.80;;;7.80;99.90;;;;;;5055271;28;20228;-81
2022/11/29 13:06:29;;;;;;;41.70;29.25;;;7.60;99.90;;;;;;5070681;28;20236;-82
2022/11/29 13:09:25;;;;;;;40.65;30.75;;;7.60;99.90;;;;;;5052341;28;20224;-82
2022/11/29 13:11:58;;;;;;;40.50;29.42;;;7.60;99.90;;;;;;5073835;28;20546;-82
2022/11/29 13:14:33;;;;;;;40.03;30.27;;;7.70;99.90;;;;;;5059947;28;20294;-82
2022/11/29 13:17:03;;;;;;;45.42;31.52;;;7.70;99.90;;;;;;5060582;28;20224;-82
2022/11/29 13:19:47;;;;;;;41.22;31.42;;;7.70;99.90;;;;;;5055640;28;20247;-82
2022/11/29 13:22:29;;;;;;;38.30;29.80;;;7.80;99.90;;;;;;5059653;28;20279;-80
2022/11/29 13:25:06;;;;;;;45.20;31.02;;;7.80;99.90;;;;;;5056208;28;20255;-80
2022/11/29 13:28:18;;;;;;;41.47;30.98;;;7.80;99.90;;;;;;5057278;28;20260;-82
2022/11/29 13:30:45;;;;;;;42.05;29.90;;;7.80;99.90;;;;;;5055278;28;20240;-81
2022/11/29 13:33:55;;;;;;;42.90;30.85;;;7.80;99.90;;;;;;5048525;28;20290;-81
2022/11/29 13:36:33;;;;;;;44.28;32.20;;;7.80;99.90;;;;;;5045739;28;20220;-81
2022/11/29 13:39:11;;;;;;;42.60;29.58;;;7.80;99.90;;;;;;5047412;28;20243;-80
2022/11/29 13:41:46;;;;;;;46.28;32.00;;;7.70;99.90;;;;;;5056383;28;20221;-80
2022/11/29 13:44:24;;;;;;;42.30;30.08;;;7.80;99.90;;;;;;5048921;28;20246;-81
2022/11/29 13:47:05;;;;;;;47.78;33.05;;;7.70;99.90;;;;;;5068030;28;20228;-80
2022/11/29 13:50:01;;;;;;;43.72;32.42;;;7.70;99.90;;;;;;5055699;28;20252;-80
2022/11/29 14:02:33;;;;;;;45.22;30.20;;;7.70;99.90;;;;;;4916433;28;20196;-82